Flight Track Log - Related Links

Times and Time Zones

All times are in EST time to prevent confusion due to time zone crossing. See the G52651 flight status page for this flight to view local times or setup timezone preferences in your user account.

Time Position Orientation Groundspeed Altitude Reporting Facility
EST Latitude Longitude Course Direction KTS MPH feet Rate Location/Type
Sun 09:29:00 PM 22.9967 109.5491 73° East  Level Estimated
Sun 09:30:00 PM 23.0250 109.6514 73° East  Level Estimated
Sun 09:31:00 PM 23.0532 109.7538 73° East  Level Estimated
Sun 09:32:00 PM 23.0814 109.8561 73° East  Level Estimated
Sun 09:33:00 PM 23.1095 109.9586 73° East  Level Estimated
Sun 09:34:00 PM 23.1375 110.0610 73° East  Level Estimated
Sun 09:35:00 PM 23.1655 110.1635 73° East  Level Estimated
Sun 09:36:00 PM 23.1934 110.2661 73° East  Level Estimated
Sun 09:37:00 PM 23.2213 110.3687 74° East  Level Estimated
Sun 09:38:00 PM 23.2490 110.4713 74° East  Level Estimated
Sun 09:39:00 PM 23.2767 110.5740 74° East  Level Estimated
Sun 09:40:00 PM 23.3044 110.6767 74° East  Level Estimated
Sun 09:41:00 PM 23.3319 110.7795 74° East  Level Estimated
Sun 09:42:00 PM 23.3594 110.8823 74° East  Level Estimated
Sun 09:43:00 PM 23.3869 110.9851 74° East  Level Estimated
Sun 09:44:00 PM 23.4142 111.0880 74° East  Level Estimated
Sun 09:45:00 PM 23.4415 111.1909 74° East  Level Estimated
Sun 09:46:00 PM 23.4567 111.2481 74° East  Level Estimated
Sun 09:47:00 PM 23.4567 111.2481 231° Southwest  Level Estimated
Sun 09:48:00 PM 23.4567 111.2481 231° Southwest  Level Estimated
Sun 09:49:00 PM 23.4567 111.2481 231° Southwest  Level Estimated
Sun 09:50:00 PM 23.4567 111.2481 231° Southwest  Level Estimated
Sun 09:51:00 PM 23.4567 111.2481 231° Southwest  Level Estimated
Sun 09:52:00 PM 23.4567 111.2481 231° Southwest  Level Estimated
Sun 09:53:00 PM 23.4567 111.2481 231° Southwest  Level Estimated
Sun 09:54:00 PM 23.4567 111.2481 231° Southwest  Level Estimated
Sun 09:55:00 PM 23.4567 111.2481 231° Southwest  Level Estimated
Sun 09:56:00 PM 23.4567 111.2481 231° Southwest  Level Estimated
Sun 09:57:00 PM 23.4567 111.2481 231° Southwest  Level Estimated
Sun 09:58:00 PM 23.4567 111.2481 231° Southwest  Level Estimated
Sun 09:59:00 PM 23.4567 111.2481 231° Southwest  Level Estimated
Sun 10:00:00 PM 23.4567 111.2481 231° Southwest  Level Estimated
Sun 10:01:00 PM 23.4567 111.2481 231° Southwest  Level Estimated
Sun 10:02:00 PM 23.4567 111.2481 231° Southwest  Level Estimated
Sun 10:03:00 PM 23.4567 111.2481 231° Southwest  Level Estimated
Sun 10:04:00 PM 23.4567 111.2481 231° Southwest  Level Estimated
Sun 10:05:00 PM 23.4567 111.2481 231° Southwest  Level Estimated
Sun 10:06:00 PM 23.4567 111.2481 231° Southwest  Level Estimated

Login

Don't have an account? Register now (free) for customized features, flight alerts, and more!